createdAt,value
2023-04-28T00:02:05.562Z,101417.34
2023-04-28T00:04:35.408Z,101426.26
2023-04-28T00:07:05.365Z,101433.66
2023-04-28T00:09:35.311Z,101431.92
2023-04-28T00:12:05.345Z,101436.66
2023-04-28T00:14:34.897Z,101426.19
2023-04-28T00:17:04.773Z,101415.86
2023-04-28T00:19:34.566Z,101410.52
2023-04-28T00:22:06.284Z,101409.92
2023-04-28T00:24:36.557Z,101396.16
2023-04-28T00:27:06.467Z,101395.06
2023-04-28T00:29:36.852Z,101392.45
2023-04-28T00:32:07.866Z,101394.53
2023-04-28T00:34:37.831Z,101384.14
2023-04-28T00:37:07.356Z,101390.38
2023-04-28T00:39:37.456Z,101385.82
2023-04-28T00:42:08.577Z,101382.17
2023-04-28T00:44:38.585Z,101376.64
2023-04-28T00:47:10.330Z,101372.81
2023-04-28T00:49:40.447Z,101378.48
2023-04-28T00:52:11.902Z,101372.44
2023-04-28T00:54:43.586Z,101362.23
2023-04-28T00:57:14.404Z,101351.44
2023-04-28T00:59:44.251Z,101352.08
2023-04-28T01:02:15.948Z,101344.29
2023-04-28T01:04:47.662Z,101350.77
2023-04-28T01:07:17.710Z,101342.84
2023-04-28T01:09:47.974Z,101344.80
2023-04-28T01:12:19.163Z,101346.19
2023-04-28T01:14:51.679Z,101347.66
2023-04-28T01:17:21.623Z,101341.36
2023-04-28T01:19:53.009Z,101335.66
2023-04-28T01:22:22.675Z,101326.68
2023-04-28T01:24:52.496Z,101333.18
2023-04-28T01:27:23.359Z,101324.80
2023-04-28T01:29:53.362Z,101335.14
2023-04-28T01:32:23.245Z,101337.59
2023-04-28T01:34:53.061Z,101315.61
2023-04-28T01:37:22.759Z,101307.58
2023-04-28T01:39:52.547Z,101304.91
2023-04-28T01:42:22.547Z,101301.77
2023-04-28T01:44:52.352Z,101313.61
2023-04-28T01:47:22.234Z,101311.75
2023-04-28T01:49:52.162Z,101317.38
2023-04-28T01:52:23.601Z,101313.48
2023-04-28T01:54:53.901Z,101319.53
2023-04-28T01:57:24.467Z,101308.80
2023-04-28T01:59:54.496Z,101304.54
2023-04-28T02:02:24.327Z,101296.16
2023-04-28T02:04:54.340Z,101295.31
2023-04-28T02:07:24.349Z,101298.09
2023-04-28T02:09:54.215Z,101289.90
2023-04-28T02:12:24.593Z,101295.95
2023-04-28T02:14:54.484Z,101295.71
2023-04-28T02:17:24.290Z,101290.95
2023-04-28T02:19:58.184Z,101289.90
2023-04-28T02:22:29.018Z,101274.25
2023-04-28T02:24:59.304Z,101274.97
2023-04-28T02:27:29.181Z,101267.87
2023-04-28T02:29:58.664Z,101266.47
2023-04-28T02:32:29.266Z,101268.09
2023-04-28T02:34:59.113Z,101273.30
2023-04-28T02:37:28.665Z,101266.73
2023-04-28T02:39:58.511Z,101261.33
2023-04-28T02:42:28.473Z,101265.62
2023-04-28T02:44:58.351Z,101259.65
2023-04-28T02:47:28.210Z,101243.69
2023-04-28T02:49:58.285Z,101243.69
2023-04-28T02:52:29.021Z,101234.14
2023-04-28T02:54:59.252Z,101212.97
2023-04-28T02:57:29.092Z,101210.56
2023-04-28T02:59:59.284Z,101206.34
2023-04-28T03:02:31.452Z,101206.34
2023-04-28T03:05:01.750Z,101200.22
2023-04-28T03:07:31.627Z,101202.94
2023-04-28T03:10:01.517Z,101197.14
2023-04-28T03:12:31.387Z,101198.97
2023-04-28T03:15:01.757Z,101202.22
2023-04-28T03:17:31.850Z,101205.52
2023-04-28T03:20:01.760Z,101199.43
2023-04-28T03:22:31.451Z,101191.20
2023-04-28T03:25:01.807Z,101194.47
2023-04-28T03:27:33.083Z,101196.56
2023-04-28T03:30:07.664Z,101195.23
2023-04-28T03:32:37.717Z,101185.61
2023-04-28T03:35:08.003Z,101185.61
2023-04-28T03:37:37.790Z,101184.42
2023-04-28T03:40:08.506Z,101180.20
2023-04-28T03:42:40.067Z,101182.66
2023-04-28T03:45:11.976Z,101186.05
2023-04-28T03:47:41.946Z,101186.98
2023-04-28T03:50:13.353Z,101180.95
2023-04-28T03:52:42.989Z,101169.27
2023-04-28T03:55:12.569Z,101165.22
2023-04-28T03:57:42.455Z,101171.31
2023-04-28T04:00:12.677Z,101167.89
2023-04-28T04:02:44.401Z,101162.48
2023-04-28T04:05:14.526Z,101164.46
2023-04-28T04:07:44.533Z,101159.27
2023-04-28T04:10:14.821Z,101166.38
2023-04-28T04:12:45.294Z,101164.95
2023-04-28T04:15:14.902Z,101156.03
2023-04-28T04:17:45.713Z,101149.95
2023-04-28T04:20:18.434Z,101156.73
2023-04-28T04:22:48.274Z,101148.63
2023-04-28T04:25:17.822Z,101142.33
2023-04-28T04:27:48.941Z,101142.42
2023-04-28T04:30:18.897Z,101141.81
2023-04-28T04:32:48.931Z,101150.41
2023-04-28T04:35:18.651Z,101145.81
2023-04-28T04:37:48.640Z,101141.91
2023-04-28T04:40:18.741Z,101144.61
2023-04-28T04:42:50.313Z,101138.71
2023-04-28T04:45:21.544Z,101142.17
2023-04-28T04:47:51.450Z,101130.47
2023-04-28T04:50:21.270Z,101129.26
2023-04-28T04:52:54.102Z,101128.22
2023-04-28T04:55:24.774Z,101126.21
2023-04-28T04:57:54.759Z,101129.21
2023-04-28T05:00:42.045Z,101134.78
2023-04-28T05:03:12.906Z,101130.08
2023-04-28T05:05:44.949Z,101125.12
2023-04-28T05:08:16.228Z,101131.98
2023-04-28T05:10:46.250Z,101132.31
2023-04-28T05:13:16.014Z,101137.23
2023-04-28T05:15:45.892Z,101126.41
2023-04-28T05:18:26.672Z,101126.90
2023-04-28T05:20:56.186Z,101124.70
2023-04-28T05:23:26.602Z,101131.20
2023-04-28T05:25:57.528Z,101121.69
2023-04-28T05:28:27.535Z,101096.09
2023-04-28T05:30:57.691Z,101096.09
2023-04-28T05:33:28.224Z,101101.64
2023-04-28T05:35:58.282Z,101111.59
2023-04-28T05:38:27.998Z,101114.31
2023-04-28T05:40:58.365Z,101089.81
2023-04-28T05:43:28.181Z,101089.81
2023-04-28T05:45:58.239Z,101081.75
2023-04-28T05:48:28.243Z,101089.97
2023-04-28T05:50:58.077Z,101088.45
2023-04-28T05:53:28.325Z,101084.35
2023-04-28T05:55:58.343Z,101075.14
2023-04-28T05:58:27.902Z,101079.34
2023-04-28T06:00:57.987Z,101097.86
2023-04-28T06:03:28.121Z,101104.44
2023-04-28T06:05:58.778Z,101103.28
2023-04-28T06:08:29.068Z,101111.21
2023-04-28T06:10:58.596Z,101121.66
2023-04-28T06:13:29.160Z,101123.64
2023-04-28T06:15:59.572Z,101113.23
2023-04-28T06:18:33.086Z,101109.22
2023-04-28T06:21:03.634Z,101099.96
2023-04-28T06:23:33.268Z,101097.33
2023-04-28T06:26:03.238Z,101096.98
2023-04-28T06:28:33.154Z,101094.69
2023-04-28T06:31:03.156Z,101088.68
2023-04-28T06:33:33.097Z,101088.41
2023-04-28T06:36:04.511Z,101080.70
2023-04-28T06:38:34.396Z,101085.45
2023-04-28T06:41:04.297Z,101082.93
2023-04-28T06:43:34.605Z,101089.84
2023-04-28T06:46:13.481Z,101095.53
2023-04-28T06:48:44.840Z,101083.36
2023-04-28T06:51:15.643Z,101073.78
2023-04-28T06:53:45.560Z,101081.75
2023-04-28T06:56:16.030Z,101079.86
2023-04-28T06:58:45.907Z,101086.36
2023-04-28T07:01:15.601Z,101082.69
2023-04-28T07:03:45.777Z,101082.78
2023-04-28T07:06:16.718Z,101081.18
2023-04-28T07:08:46.364Z,101082.50
2023-04-28T07:11:16.548Z,101080.28
2023-04-28T07:13:50.984Z,101087.36
2023-04-28T07:16:22.129Z,101090.28
2023-04-28T07:18:52.092Z,101083.33
2023-04-28T07:21:22.174Z,101087.89
2023-04-28T07:23:52.114Z,101088.05
2023-04-28T07:26:21.634Z,101078.77
2023-04-28T07:28:51.916Z,101088.64
2023-04-28T07:31:21.901Z,101087.59
2023-04-28T07:33:51.797Z,101077.86
2023-04-28T07:36:22.347Z,101083.92
2023-04-28T07:38:52.256Z,101078.28
2023-04-28T07:41:22.793Z,101077.70
2023-04-28T07:43:52.674Z,101073.91
2023-04-28T07:46:23.922Z,101066.09
2023-04-28T07:48:55.191Z,101065.25
2023-04-28T07:51:25.169Z,101075.11
2023-04-28T07:53:55.058Z,101062.61
2023-04-28T07:56:26.486Z,101056.36
2023-04-28T07:58:57.069Z,101053.52
2023-04-28T08:01:26.899Z,101051.97
2023-04-28T08:03:56.917Z,101045.95
2023-04-28T08:06:26.763Z,101048.36
2023-04-28T08:08:56.919Z,101045.11
2023-04-28T08:11:26.804Z,101052.56
2023-04-28T08:13:58.252Z,101046.77
2023-04-28T08:16:28.324Z,101046.77
2023-04-28T08:18:59.765Z,101048.72
2023-04-28T08:21:29.775Z,101053.27
2023-04-28T08:23:59.408Z,101057.08
2023-04-28T08:26:29.346Z,101065.52
2023-04-28T08:28:59.177Z,101063.86
2023-04-28T08:31:29.375Z,101064.31
2023-04-28T08:33:59.212Z,101068.44
2023-04-28T08:36:30.799Z,101076.77
2023-04-28T08:39:03.090Z,101076.77
2023-04-28T08:41:34.845Z,101076.51
2023-04-28T08:44:11.770Z,101072.07
2023-04-28T08:46:42.778Z,101066.16
2023-04-28T08:49:17.598Z,101061.30
2023-04-28T08:51:51.682Z,101061.30
2023-04-28T08:54:26.233Z,101062.32
2023-04-28T08:56:54.299Z,101060.41
2023-04-28T08:59:24.457Z,101067.97
2023-04-28T09:01:54.650Z,101067.67
2023-04-28T09:04:24.814Z,101073.99
2023-04-28T09:06:55.276Z,101074.05
2023-04-28T09:09:28.104Z,101069.73
2023-04-28T09:12:01.445Z,101067.51
2023-04-28T09:14:34.466Z,101069.44
2023-04-28T09:17:06.113Z,101076.67
2023-04-28T09:19:37.666Z,101061.30
2023-04-28T09:22:24.680Z,101061.55
2023-04-28T09:24:47.053Z,101058.38
2023-04-28T09:27:18.503Z,101057.27
2023-04-28T09:29:55.408Z,101057.48
2023-04-28T09:32:27.094Z,101055.54
2023-04-28T09:34:57.584Z,101062.95
2023-04-28T09:37:30.035Z,101059.30
2023-04-28T09:40:05.712Z,101053.02
2023-04-28T09:42:41.123Z,101050.52
2023-04-28T09:45:16.232Z,101048.08
2023-04-28T09:47:48.402Z,101051.78
2023-04-28T09:50:19.091Z,101050.63
2023-04-28T09:52:51.950Z,101048.06
2023-04-28T09:55:21.915Z,101047.12
2023-04-28T09:57:54.913Z,101051.17
2023-04-28T10:00:25.030Z,101043.93
2023-04-28T10:02:55.094Z,101046.98
2023-04-28T10:05:25.626Z,101045.59
2023-04-28T10:07:56.216Z,101049.98
2023-04-28T10:10:27.373Z,101049.09
2023-04-28T10:12:57.938Z,101050.78
2023-04-28T10:15:27.783Z,101045.38
2023-04-28T10:17:58.384Z,101045.37
2023-04-28T10:20:30.904Z,101044.36
2023-04-28T10:23:19.997Z,101043.65
2023-04-28T10:25:52.477Z,101045.00
2023-04-28T10:28:22.217Z,101048.90
2023-04-28T10:31:11.297Z,101046.23
2023-04-28T10:33:43.074Z,101041.80
2023-04-28T10:36:16.231Z,101045.20
2023-04-28T10:39:15.280Z,101047.37
2023-04-28T10:41:47.867Z,101048.22
2023-04-28T10:44:35.752Z,101046.36
2023-04-28T10:47:10.899Z,101047.90
2023-04-28T10:50:01.883Z,101047.64
2023-04-28T10:52:40.738Z,101050.78
2023-04-28T10:55:32.404Z,101042.62
2023-04-28T10:58:20.355Z,101050.48
2023-04-28T11:00:51.868Z,101048.13
2023-04-28T11:04:04.934Z,101044.72
2023-04-28T11:06:37.122Z,101043.91
2023-04-28T11:09:19.337Z,101046.59
2023-04-28T11:12:06.794Z,101044.61
2023-04-28T11:14:40.308Z,101046.86
2023-04-28T11:17:14.005Z,101042.76
2023-04-28T11:19:48.811Z,101045.05
2023-04-28T11:22:21.849Z,101046.38
2023-04-28T11:25:02.662Z,101047.87
2023-04-28T11:27:34.603Z,101049.11
2023-04-28T11:30:24.074Z,101050.45
2023-04-28T11:32:54.406Z,101044.09
2023-04-28T11:35:24.020Z,101045.19
2023-04-28T11:38:04.655Z,101033.83
2023-04-28T11:40:34.778Z,101033.83
2023-04-28T11:43:04.690Z,101041.84
2023-04-28T11:45:34.759Z,101046.77
2023-04-28T11:48:09.521Z,101041.97
2023-04-28T11:50:39.826Z,101044.33
2023-04-28T11:53:09.676Z,101048.22
2023-04-28T11:55:39.962Z,101051.31
2023-04-28T11:58:25.061Z,101051.83
2023-04-28T12:01:11.227Z,101055.77
2023-04-28T12:03:48.542Z,101058.77
2023-04-28T12:06:21.005Z,101059.45
2023-04-28T12:08:52.502Z,101059.55
2023-04-28T12:11:22.927Z,101065.92
2023-04-28T12:14:07.911Z,101060.25
2023-04-28T12:16:44.495Z,101057.91
2023-04-28T12:19:15.454Z,101063.44
2023-04-28T12:21:45.348Z,101062.55
2023-04-28T12:24:24.598Z,101059.56
2023-04-28T12:26:54.631Z,101059.56
2023-04-28T12:29:39.226Z,101066.67
2023-04-28T12:32:13.301Z,101056.73
2023-04-28T12:34:43.858Z,101064.30
2023-04-28T12:37:14.182Z,101072.81
2023-04-28T12:39:44.462Z,101064.77
2023-04-28T12:42:14.939Z,101074.00
2023-04-28T12:44:46.103Z,101065.36
2023-04-28T12:47:17.647Z,101069.58
2023-04-28T12:49:48.844Z,101074.99
2023-04-28T12:52:18.641Z,101068.36
2023-04-28T12:54:49.582Z,101073.34
2023-04-28T12:57:20.790Z,101068.80
2023-04-28T12:59:52.728Z,101070.11
2023-04-28T13:02:22.697Z,101067.53
2023-04-28T13:04:53.605Z,101078.73
2023-04-28T13:07:23.941Z,101078.96
2023-04-28T13:09:53.806Z,101078.42
2023-04-28T13:12:24.162Z,101077.05
2023-04-28T13:14:54.012Z,101074.23
2023-04-28T13:17:23.881Z,101079.19
2023-04-28T13:19:53.765Z,101077.97
2023-04-28T13:22:23.288Z,101077.48
2023-04-28T13:24:53.181Z,101077.00
2023-04-28T13:27:23.120Z,101078.85
2023-04-28T13:29:53.001Z,101073.67
2023-04-28T13:32:22.728Z,101072.46
2023-04-28T13:34:52.943Z,101071.17
2023-04-28T13:37:23.152Z,101065.04
2023-04-28T13:39:52.955Z,101065.40
2023-04-28T13:42:23.187Z,101065.81
2023-04-28T13:44:53.094Z,101070.59
2023-04-28T13:47:22.902Z,101065.03
2023-04-28T13:49:53.033Z,101057.89
2023-04-28T13:52:23.411Z,101062.41
2023-04-28T13:54:53.613Z,101064.57
2023-04-28T13:57:23.875Z,101073.23
2023-04-28T13:59:53.895Z,101069.24
2023-04-28T14:02:24.509Z,101068.80
2023-04-28T14:04:54.556Z,101066.20
2023-04-28T14:07:24.590Z,101084.50
2023-04-28T14:09:54.506Z,101074.98
2023-04-28T14:12:24.199Z,101074.13
2023-04-28T14:14:54.009Z,101076.20
2023-04-28T14:17:24.117Z,101079.03
2023-04-28T14:19:54.028Z,101075.30
2023-04-28T14:22:24.028Z,101075.30
2023-04-28T14:24:53.832Z,101084.47
2023-04-28T14:27:23.914Z,101078.49
2023-04-28T14:29:53.726Z,101072.75
2023-04-28T14:32:23.597Z,101073.91
2023-04-28T14:34:53.659Z,101084.44
2023-04-28T14:37:23.590Z,101070.38
2023-04-28T14:39:53.691Z,101077.71
2023-04-28T14:42:23.257Z,101082.05
2023-04-28T14:44:54.539Z,101077.36
2023-04-28T14:47:24.976Z,101073.98
2023-04-28T14:49:55.447Z,101080.36
2023-04-28T14:52:27.777Z,101081.20
2023-04-28T14:54:58.435Z,101077.47
2023-04-28T14:57:28.579Z,101078.63
2023-04-28T14:59:58.652Z,101091.11
2023-04-28T15:02:29.663Z,101082.69
2023-04-28T15:05:00.042Z,101091.80
2023-04-28T15:07:31.864Z,101100.20
2023-04-28T15:10:02.039Z,101097.23
2023-04-28T15:12:32.802Z,101097.22
2023-04-28T15:15:02.667Z,101096.28
2023-04-28T15:17:32.528Z,101096.28
2023-04-28T15:20:03.781Z,101100.31
2023-04-28T15:22:33.605Z,101104.98
2023-04-28T15:25:03.493Z,101102.23
2023-04-28T15:27:33.264Z,101106.66
2023-04-28T15:30:03.393Z,101108.98
2023-04-28T15:32:33.230Z,101101.25
2023-04-28T15:35:03.169Z,101107.97
2023-04-28T15:37:47.766Z,101108.92
2023-04-28T15:40:19.359Z,101104.16
2023-04-28T15:42:49.690Z,101107.14
2023-04-28T15:45:22.691Z,101107.80
2023-04-28T15:47:54.215Z,101116.98
2023-04-28T15:50:24.432Z,101115.37
2023-04-28T15:52:54.689Z,101111.26
2023-04-28T15:55:25.687Z,101118.80
2023-04-28T15:57:55.384Z,101122.28
2023-04-28T16:00:25.053Z,101124.80
2023-04-28T16:02:55.125Z,101119.86
2023-04-28T16:05:25.160Z,101123.37
2023-04-28T16:07:55.078Z,101122.19
2023-04-28T16:10:24.750Z,101124.12
2023-04-28T16:12:54.603Z,101123.67
2023-04-28T16:15:24.460Z,101129.11
2023-04-28T16:17:56.012Z,101129.19
2023-04-28T16:20:25.959Z,101129.95
2023-04-28T16:22:55.974Z,101121.64
2023-04-28T16:25:25.966Z,101127.52
2023-04-28T16:27:55.807Z,101136.42
2023-04-28T16:30:25.490Z,101142.28
2023-04-28T16:32:57.109Z,101139.98
2023-04-28T16:35:27.003Z,101145.67
2023-04-28T16:37:57.121Z,101141.11
2023-04-28T16:40:26.751Z,101147.05
2023-04-28T16:42:57.343Z,101143.08
2023-04-28T16:45:27.151Z,101151.49
2023-04-28T16:47:57.036Z,101145.39
2023-04-28T16:50:27.061Z,101144.97
2023-04-28T16:52:56.925Z,101146.53
2023-04-28T16:55:26.903Z,101147.39
2023-04-28T16:57:56.717Z,101147.39
2023-04-28T17:00:26.908Z,101151.72
2023-04-28T17:02:57.043Z,101150.77
2023-04-28T17:05:27.067Z,101147.09
2023-04-28T17:07:57.862Z,101154.06
2023-04-28T17:10:27.965Z,101147.23
2023-04-28T17:12:57.830Z,101146.16
2023-04-28T17:15:27.693Z,101161.97
2023-04-28T17:17:57.554Z,101153.86
2023-04-28T17:20:27.202Z,101150.30
2023-04-28T17:22:57.320Z,101153.55
2023-04-28T17:25:27.203Z,101154.42
2023-04-28T17:27:57.318Z,101151.83
2023-04-28T17:30:26.880Z,101161.33
2023-04-28T17:32:56.903Z,101156.63
2023-04-28T17:35:26.958Z,101152.06
2023-04-28T17:37:56.983Z,101156.80
2023-04-28T17:40:27.953Z,101159.00
2023-04-28T17:42:58.040Z,101162.63
2023-04-28T17:45:27.945Z,101162.63
2023-04-28T17:47:59.434Z,101164.58
2023-04-28T17:50:30.059Z,101169.91
2023-04-28T17:53:00.047Z,101172.23
2023-04-28T17:55:29.949Z,101167.92
2023-04-28T17:57:59.789Z,101178.19
2023-04-28T18:00:29.320Z,101178.19
2023-04-28T18:03:01.657Z,101174.55
2023-04-28T18:05:32.162Z,101180.47
2023-04-28T18:08:06.203Z,101172.52
2023-04-28T18:10:36.221Z,101186.28
2023-04-28T18:13:07.782Z,101185.17
2023-04-28T18:15:37.621Z,101184.16
2023-04-28T18:18:11.129Z,101171.42
2023-04-28T18:20:42.928Z,101171.42
2023-04-28T18:23:12.485Z,101188.00
2023-04-28T18:25:43.691Z,101188.47
2023-04-28T18:28:13.785Z,101193.28
2023-04-28T18:30:42.879Z,101198.23
2023-04-28T18:33:12.686Z,101199.16
2023-04-28T18:35:42.546Z,101204.92
2023-04-28T18:38:12.371Z,101209.20
2023-04-28T18:40:42.343Z,101206.58
2023-04-28T18:43:12.160Z,101213.52
2023-04-28T18:45:42.949Z,101208.73
2023-04-28T18:48:13.596Z,101210.59
2023-04-28T18:50:44.576Z,101212.85
2023-04-28T18:53:14.757Z,101215.56
2023-04-28T18:55:44.798Z,101212.40
2023-04-28T18:58:15.591Z,101217.55
2023-04-28T19:00:46.009Z,101221.11
2023-04-28T19:03:17.511Z,101220.72
2023-04-28T19:05:47.642Z,101227.30
2023-04-28T19:08:17.207Z,101235.61
2023-04-28T19:10:48.880Z,101231.20
2023-04-28T19:13:18.762Z,101238.08
2023-04-28T19:15:48.575Z,101247.05
2023-04-28T19:18:18.919Z,101250.33
2023-04-28T19:20:50.558Z,101253.84
2023-04-28T19:23:20.813Z,101255.51
2023-04-28T19:25:50.697Z,101260.81
2023-04-28T19:28:20.606Z,101267.23
2023-04-28T19:30:50.852Z,101276.06
2023-04-28T19:33:20.989Z,101266.08
2023-04-28T19:35:51.532Z,101279.34
2023-04-28T19:38:22.844Z,101284.59
2023-04-28T19:41:01.005Z,101292.11
2023-04-28T19:43:32.507Z,101295.05
2023-04-28T19:46:05.508Z,101305.81
2023-04-28T19:48:35.332Z,101310.09
2023-04-28T19:51:07.182Z,101307.24
2023-04-28T19:53:40.609Z,101309.47
2023-04-28T19:56:12.276Z,101315.37
2023-04-28T19:58:42.183Z,101315.10
2023-04-28T20:01:12.064Z,101308.25
2023-04-28T20:03:42.136Z,101314.32
2023-04-28T20:06:17.545Z,101313.14
2023-04-28T20:08:47.259Z,101314.86
2023-04-28T20:11:17.446Z,101321.98
2023-04-28T20:13:47.931Z,101317.35
2023-04-28T20:16:19.547Z,101317.02
2023-04-28T20:18:49.163Z,101323.16
2023-04-28T20:21:20.053Z,101325.44
2023-04-28T20:23:50.589Z,101326.09
2023-04-28T20:26:20.639Z,101325.48
2023-04-28T20:28:51.748Z,101333.27
2023-04-28T20:31:22.963Z,101330.91
2023-04-28T20:33:53.481Z,101331.52
2023-04-28T20:36:23.422Z,101331.44
2023-04-28T20:38:53.691Z,101333.84
2023-04-28T20:41:23.865Z,101341.20
2023-04-28T20:43:54.427Z,101345.48
2023-04-28T20:46:24.455Z,101340.51
2023-04-28T20:48:54.722Z,101345.18
2023-04-28T20:51:24.554Z,101341.00
2023-04-28T20:53:54.359Z,101347.91
2023-04-28T20:56:24.129Z,101346.31
2023-04-28T20:58:55.620Z,101350.16
2023-04-28T21:01:25.132Z,101344.39
2023-04-28T21:03:55.120Z,101352.25
2023-04-28T21:06:24.712Z,101354.30
2023-04-28T21:08:54.991Z,101353.88
2023-04-28T21:11:24.540Z,101357.28
2023-04-28T21:13:54.364Z,101355.38
2023-04-28T21:16:24.108Z,101353.52
2023-04-28T21:18:54.524Z,101355.00
2023-04-28T21:21:24.057Z,101357.53
2023-04-28T21:23:54.084Z,101362.07
2023-04-28T21:26:24.273Z,101364.91
2023-04-28T21:28:54.589Z,101364.30
2023-04-28T21:31:25.334Z,101366.78
2023-04-28T21:33:55.675Z,101371.27
2023-04-28T21:36:25.491Z,101375.91
2023-04-28T21:38:55.403Z,101371.48
2023-04-28T21:41:25.439Z,101377.74
2023-04-28T21:43:55.954Z,101384.74
2023-04-28T21:46:25.926Z,101386.86
2023-04-28T21:48:56.177Z,101385.86
2023-04-28T21:51:26.229Z,101391.48
2023-04-28T21:53:56.066Z,101387.38
2023-04-28T21:56:25.578Z,101384.73
2023-04-28T21:58:55.675Z,101385.06
2023-04-28T22:01:25.635Z,101386.59
2023-04-28T22:03:56.154Z,101383.17
2023-04-28T22:06:25.883Z,101386.05
2023-04-28T22:08:57.127Z,101394.88
2023-04-28T22:11:27.036Z,101389.19
2023-04-28T22:13:56.890Z,101396.09
2023-04-28T22:16:26.690Z,101396.09
2023-04-28T22:18:56.927Z,101397.25
2023-04-28T22:21:28.309Z,101397.25
2023-04-28T22:23:58.176Z,101407.16
2023-04-28T22:26:31.088Z,101404.06
2023-04-28T22:29:02.114Z,101410.95
2023-04-28T22:31:32.206Z,101410.94
2023-04-28T22:34:02.065Z,101413.58
2023-04-28T22:36:32.564Z,101414.72
2023-04-28T22:39:02.117Z,101404.23
2023-04-28T22:41:32.078Z,101407.95
2023-04-28T22:44:01.948Z,101413.48
2023-04-28T22:46:31.805Z,101408.91
2023-04-28T22:49:02.025Z,101413.45
2023-04-28T22:51:31.796Z,101416.42
2023-04-28T22:54:01.859Z,101416.20
2023-04-28T22:56:31.708Z,101420.00
2023-04-28T22:59:01.532Z,101423.84
2023-04-28T23:01:31.895Z,101430.22
2023-04-28T23:04:01.972Z,101430.36
2023-04-28T23:06:32.192Z,101433.84
2023-04-28T23:09:03.604Z,101435.59
2023-04-28T23:11:33.453Z,101431.77
2023-04-28T23:14:03.352Z,101444.25
2023-04-28T23:16:33.260Z,101440.66
2023-04-28T23:19:03.186Z,101445.23
2023-04-28T23:21:33.010Z,101454.73
2023-04-28T23:24:02.958Z,101451.88
2023-04-28T23:26:32.898Z,101457.22
2023-04-28T23:29:02.741Z,101457.22
2023-04-28T23:31:33.363Z,101464.37
2023-04-28T23:34:05.176Z,101443.69
2023-04-28T23:36:35.565Z,101468.92
2023-04-28T23:39:05.441Z,101466.66
2023-04-28T23:41:35.381Z,101468.59
2023-04-28T23:44:06.484Z,101474.45
2023-04-28T23:46:36.724Z,101480.75
2023-04-28T23:49:06.525Z,101483.76
2023-04-28T23:51:36.640Z,101480.55
2023-04-28T23:54:09.232Z,101478.66
2023-04-28T23:56:39.090Z,101476.98
2023-04-28T23:59:08.966Z,101483.50
